Pagrindinis puslapis
METAR-TAF:

METAR-TAF

Oro uostai :

La Pasas, Bolivija

platuma: 16-31S, ilguma: 068-11W, Aukštis: 4058 m

Dabartinis oras

Ataskaita buvo paskelbta 45 minutes, ne 14:00 UTC
Vėjas 7 kt iš Vakarų
Temperatūra 9°C
Drėgmė 14%
Slėgis 1041 hPa
Matomumas 10 km arba daugiau

METAR: SLLP 271400Z 28007KT 9999 NSC 09/M17 Q1041

Laikas: 10:45 (14:45 UTC)

Prognozė

Ataskaita buvo paskelbta 4 valandos ir 45 minutes, ne 10:00 UTC
Prognozė galioja nuo 27 metu 12 UTC su 28 metu 12 UTC
Vėjas 2 kt nuo kintamojo kryptimis
Matomumas 10 km arba daugiau
Tapsmas
nuo 27 metu 13 UTC su 27 metu 15 UTC
Vėjas 12 kt iš Vakarų/Šiaurės Vakarų
Laikinai
nuo 27 metu 17 UTC su 27 metu 21 UTC
Vėjas 15 kt iš Vakarų/Šiaurės Vakarų su gūsio iki 25 kt

TAF: SLLP 271000Z 2712/2812 VRB02KT 9999 NSC TX14/2719Z TNM06/2811Z BECMG 2713/2715 29012KT TEMPO 2717/2721 29015G25KT

Orai ataskaitas ir orų prognozės (METAR, TAF).

turimą stotys yra geltonos ir raudonos taškus žemėlapyje.

Perkelti pele per norėdami pamatyti stoties vardą.

Tada spustelėkite, norėdami matyti oro stebėjimo ir prognozės.

Norėdami pakeisti žemėlapį: spustelėkite ant žalios mygtukų su juodo kryžiaus žemyn,; žalią mygtuką su brūkšneliu, jei norite nutolinti; arba žalių rodyklių gretimoms žemėlapius.


METAR-TAF: